Sewaren, NJ (07077)

2:55 PM EDT on August 31, 2015 (GMT -0400)
Town Hall Woodbridge | | Change Station
CLOSE
Current Station
Personal Weather Station
Location: Woodbridge Township, NJ
Elevation: 23 ft
Nearby Weather Stations

Elev 23 ft 40.56 °N, 74.27 °W | Updated 13 seconds ago

Clear
Clear
88.5 °F
Feels Like 92 °F
N
2.0
Wind Variable Wind from WNW
Gusts 8.0 mph

Today
High -- | Low -- °F
--% Chance of Precip.
Yesterday
High -- | Low -- °F
Precip. -- in
6:23 AM 7:31 PM
Waning Gibbous, 94% visible
Pressure 30.00 in
Visibility 10.0 miles
Clouds Scattered Clouds 5000 ft
Heat Index 92 °F
Dew Point 67 °F
Humidity 49%
Rainfall 0.00 in
Snow Depth Not available.
UV 6 out of 12
Pollen 10.60 out of 12
Air Quality Not available.
Flu Activity Not available.
METAR KLDJ 311835Z AUTO 30007G14KT 10SM SCT050 32/18 A3000 RMK AO2 T03180176
Pressure 30.00 in
Visibility 10.0 miles
Clouds Scattered Clouds 5000 ft
Heat Index 92 °F
Dew Point 67 °F
Humidity 49%
Rainfall 0.00 in
Snow Depth Not available.
UV 6 out of 12
Pollen 10.60 out of 12
Air Quality Not available.
Flu Activity Not available.
METAR KLDJ 311835Z AUTO 30007G14KT 10SM SCT050 32/18 A3000 RMK AO2 T03180176
Nowcast | as of 1:12 PM EDT on August 31, 2015

As we move toward the middle of the afternoon, isolated showers, possibly a thunderstorm, will continue to develop and move through the region. While the overall chances of having precipitation is low, where a shower or thunderstorm does occur, some brief heavy downpours will occur. The duration of precipitation will also last less than 30 minutes.

×

10-Day Weather Forecast

×

Almanac

Astronomy

Aug. 31, 2015 Rise Set
Actual Time
Civil Twilight
Nautical Twilight
Astronomical Twilight
Moon
Length of Visible Light
Length of Day
Tomorrow will be .
, % of the Moon is Illuminated

Today's Extremes

State Highs State Lows

Community

WunderPhotos

Upload Photos

1,851,334 photos uploaded!

WunderBlogs® & News

Nearby

Air Quality

  Air Quality AQ Index Pollutant
Not available.

Snow Depth

Station Depth Elevation

Earthquake Activity

City Distance Mag. Time & Date
Minimum magnitude displayed is 2.5.

Coastal Water Temperatures

Place Temperature

Stations

Nearby Weather Stations

Station Location Temp. Windchill Dew Point Humidity Wind Precip. Elev Updated Type